createdAt,value
2017-05-13T00:02:51.534Z,0
2017-05-13T00:03:51.553Z,0
2017-05-13T00:05:06.193Z,0
2017-05-13T00:05:51.605Z,0
2017-05-13T00:06:51.624Z,0
2017-05-13T00:07:51.650Z,0
2017-05-13T00:08:51.371Z,0
2017-05-13T00:10:51.719Z,0
2017-05-13T00:11:51.744Z,0
2017-05-13T00:12:51.766Z,0
2017-05-13T00:14:06.407Z,0
2017-05-13T00:14:51.812Z,0
2017-05-13T00:15:51.836Z,0
2017-05-13T00:16:51.856Z,0
2017-05-13T00:17:51.881Z,0
2017-05-13T00:18:51.903Z,0
2017-05-13T00:20:06.551Z,0
2017-05-13T00:20:51.948Z,0
2017-05-13T00:21:51.973Z,0
2017-05-13T00:22:52.000Z,0
2017-05-13T00:24:06.636Z,0
2017-05-13T00:25:21.276Z,0
2017-05-13T00:27:52.117Z,0
2017-05-13T00:29:06.753Z,0
2017-05-13T00:30:06.777Z,0
2017-05-13T00:30:52.191Z,0
2017-05-13T00:31:52.210Z,0
2017-05-13T00:32:52.235Z,0
2017-05-13T00:33:52.251Z,0
2017-05-13T00:34:52.282Z,0
2017-05-13T00:35:51.995Z,0
2017-05-13T00:36:52.325Z,0
2017-05-13T00:38:06.969Z,0
2017-05-13T00:38:52.371Z,0
2017-05-13T00:39:52.401Z,0
2017-05-13T00:40:52.416Z,0
2017-05-13T00:42:07.056Z,0
2017-05-13T00:42:52.467Z,0
2017-05-13T00:43:52.487Z,0
2017-05-13T00:44:52.524Z,0
2017-05-13T00:46:06.846Z,0
2017-05-13T00:47:07.170Z,0
2017-05-13T00:48:52.611Z,0
2017-05-13T00:49:52.628Z,0
2017-05-13T00:51:52.389Z,0
2017-05-13T00:52:52.703Z,0
2017-05-13T00:53:52.730Z,0
2017-05-13T00:54:52.742Z,0
2017-05-13T00:55:52.785Z,0
2017-05-13T00:56:52.805Z,0
2017-05-13T00:57:52.822Z,0
2017-05-13T01:01:07.497Z,0
2017-05-13T01:02:07.519Z,0
2017-05-13T01:02:52.928Z,0
2017-05-13T01:03:52.954Z,0
2017-05-13T01:04:52.977Z,0
2017-05-13T01:05:53.000Z,0
2017-05-13T01:06:53.030Z,0
2017-05-13T01:07:52.738Z,0
2017-05-13T01:08:53.070Z,0
2017-05-13T01:09:52.787Z,0
2017-05-13T01:10:53.113Z,0
2017-05-13T01:11:53.132Z,0
2017-05-13T01:12:53.167Z,0
2017-05-13T01:13:53.182Z,0
2017-05-13T01:14:53.209Z,0
2017-05-13T01:16:07.843Z,0
2017-05-13T01:16:53.251Z,0
2017-05-13T01:17:53.276Z,0
2017-05-13T01:18:53.298Z,0
2017-05-13T01:19:53.319Z,0
2017-05-13T01:20:53.342Z,0
2017-05-13T01:21:53.064Z,0
2017-05-13T01:23:08.007Z,0
2017-05-13T01:23:53.411Z,0
2017-05-13T01:24:52.835Z,0
2017-05-13T01:26:22.693Z,0
2017-05-13T01:26:53.483Z,0
2017-05-13T01:27:53.507Z,0
2017-05-13T01:28:53.533Z,0
2017-05-13T01:29:53.256Z,0
2017-05-13T01:30:53.573Z,0
2017-05-13T01:31:53.293Z,0
2017-05-13T01:33:08.232Z,0
2017-05-13T01:33:53.646Z,0
2017-05-13T01:34:53.668Z,0
2017-05-13T01:35:53.691Z,0
2017-05-13T01:36:53.719Z,0
2017-05-13T01:37:53.743Z,0
2017-05-13T01:38:53.757Z,0
2017-05-13T01:40:08.397Z,0
2017-05-13T01:41:23.039Z,0
2017-05-13T01:41:53.826Z,0
2017-05-13T01:42:53.855Z,0
2017-05-13T01:43:53.876Z,0
2017-05-13T01:44:53.895Z,0
2017-05-13T01:46:23.149Z,0
2017-05-13T01:46:53.939Z,0
2017-05-13T01:47:53.967Z,0
2017-05-13T01:49:08.601Z,0
2017-05-13T01:49:54.018Z,0
2017-05-13T01:50:54.072Z,0
2017-05-13T01:51:54.062Z,0
2017-05-13T01:53:53.799Z,0
2017-05-13T01:54:54.126Z,0
2017-05-13T01:55:54.149Z,0
2017-05-13T01:56:54.170Z,0
2017-05-13T01:58:08.809Z,0
2017-05-13T01:58:54.220Z,0
2017-05-13T01:59:54.244Z,0
2017-05-13T02:00:54.265Z,0
2017-05-13T02:01:54.283Z,0
2017-05-13T02:02:54.314Z,0
2017-05-13T02:03:54.030Z,0
2017-05-13T02:05:08.975Z,0
2017-05-13T02:05:54.077Z,0
2017-05-13T02:06:54.399Z,0
2017-05-13T02:07:54.425Z,0
2017-05-13T02:10:08.783Z,0
2017-05-13T02:10:54.490Z,0
2017-05-13T02:11:54.517Z,0
2017-05-13T02:12:54.538Z,0
2017-05-13T02:13:54.562Z,0
2017-05-13T02:14:54.589Z,0
2017-05-13T02:15:54.301Z,0
2017-05-13T02:16:54.630Z,0
2017-05-13T02:17:54.659Z,0
2017-05-13T02:19:09.293Z,0
2017-05-13T02:19:54.706Z,0
2017-05-13T02:21:09.338Z,0
2017-05-13T02:21:54.752Z,0
2017-05-13T02:22:54.808Z,0
2017-05-13T02:23:54.793Z,0
2017-05-13T02:24:54.813Z,0
2017-05-13T02:26:54.861Z,0
2017-05-13T02:27:54.882Z,0
2017-05-13T02:28:54.913Z,0
2017-05-13T02:29:54.931Z,0
2017-05-13T02:30:55.005Z,0
2017-05-13T02:32:24.208Z,0
2017-05-13T02:33:09.632Z,0
2017-05-13T02:33:55.027Z,0
2017-05-13T02:34:55.047Z,0
2017-05-13T02:36:09.682Z,0
2017-05-13T02:36:55.091Z,0
2017-05-13T02:37:55.134Z,0
2017-05-13T02:39:55.160Z,0
2017-05-13T02:41:55.213Z,0
2017-05-13T02:42:54.927Z,0
2017-05-13T02:43:54.948Z,0
2017-05-13T02:44:54.970Z,0
2017-05-13T02:45:55.297Z,0
2017-05-13T02:46:55.324Z,0
2017-05-13T02:47:55.346Z,0
2017-05-13T02:48:55.073Z,0
2017-05-13T02:49:55.083Z,0
2017-05-13T02:50:55.410Z,0
2017-05-13T02:52:10.050Z,0
2017-05-13T02:52:55.466Z,0
2017-05-13T02:53:55.488Z,0
2017-05-13T02:55:55.525Z,0
2017-05-13T02:56:55.551Z,0
2017-05-13T02:57:55.575Z,0
2017-05-13T02:58:55.600Z,0
2017-05-13T03:00:10.239Z,0
2017-05-13T03:00:55.643Z,0
2017-05-13T03:01:55.664Z,0
2017-05-13T03:02:55.381Z,0
2017-05-13T03:04:10.327Z,0
2017-05-13T03:04:55.741Z,0
2017-05-13T03:05:55.768Z,0
2017-05-13T03:06:55.779Z,0
2017-05-13T03:08:10.116Z,0
2017-05-13T03:08:55.833Z,0
2017-05-13T03:09:55.547Z,0
2017-05-13T03:10:55.572Z,0
2017-05-13T03:11:55.898Z,0
2017-05-13T03:12:55.917Z,0
2017-05-13T03:13:55.943Z,0
2017-05-13T03:14:55.969Z,0
2017-05-13T03:15:55.684Z,0
2017-05-13T03:17:10.365Z,0
2017-05-13T03:17:56.031Z,0
2017-05-13T03:19:10.670Z,0
2017-05-13T03:19:56.080Z,0
2017-05-13T03:20:55.807Z,0
2017-05-13T03:21:55.824Z,0
2017-05-13T03:22:55.846Z,0
2017-05-13T03:24:10.788Z,0
2017-05-13T03:24:56.211Z,0
2017-05-13T03:25:55.955Z,0
2017-05-13T03:27:10.553Z,0
2017-05-13T03:27:55.656Z,0
2017-05-13T03:28:56.288Z,0
2017-05-13T03:29:56.308Z,0
2017-05-13T03:30:56.331Z,0
2017-05-13T03:32:10.975Z,0
2017-05-13T03:32:56.382Z,0
2017-05-13T03:33:56.401Z,0
2017-05-13T03:34:56.434Z,0
2017-05-13T03:35:56.146Z,0
2017-05-13T03:36:55.859Z,0
2017-05-13T03:37:56.496Z,0
2017-05-13T03:38:56.518Z,0
2017-05-13T03:40:56.556Z,0
2017-05-13T03:41:56.586Z,0
2017-05-13T03:42:56.304Z,0
2017-05-13T03:43:56.324Z,0
2017-05-13T03:44:56.347Z,0
2017-05-13T03:45:56.724Z,0
2017-05-13T03:46:56.694Z,0
2017-05-13T03:47:56.728Z,0
2017-05-13T03:48:56.745Z,0
2017-05-13T03:49:56.766Z,0
2017-05-13T03:51:25.718Z,0
2017-05-13T03:51:56.813Z,0
2017-05-13T03:52:56.837Z,0
2017-05-13T03:53:56.861Z,5
2017-05-13T03:54:56.882Z,5
2017-05-13T03:57:26.202Z,5
2017-05-13T03:57:56.957Z,5
2017-05-13T03:58:56.975Z,5
2017-05-13T03:59:56.998Z,5
2017-05-13T04:00:57.022Z,5
2017-05-13T04:01:57.037Z,5
2017-05-13T04:02:57.070Z,5
2017-05-13T04:03:57.090Z,5
2017-05-13T04:04:57.110Z,5
2017-05-13T04:05:57.133Z,5
2017-05-13T04:06:57.160Z,10
2017-05-13T04:07:57.184Z,10
2017-05-13T04:09:11.819Z,10
2017-05-13T04:09:57.228Z,10
2017-05-13T04:11:26.489Z,10
2017-05-13T04:11:57.272Z,10
2017-05-13T04:12:57.300Z,10
2017-05-13T04:14:57.046Z,10
2017-05-13T04:15:57.363Z,15
2017-05-13T04:16:57.386Z,15
2017-05-13T04:17:57.419Z,15
2017-05-13T04:19:11.743Z,15
2017-05-13T04:19:57.150Z,15
2017-05-13T04:20:57.174Z,15
2017-05-13T04:22:12.121Z,15
2017-05-13T04:22:57.524Z,15
2017-05-13T04:24:57.570Z,15
2017-05-13T04:25:57.291Z,20
2017-05-13T04:26:57.615Z,20
2017-05-13T04:28:57.668Z,20
2017-05-13T04:30:57.404Z,20
2017-05-13T04:31:57.732Z,20
2017-05-13T04:32:57.754Z,20
2017-05-13T04:34:57.495Z,20
2017-05-13T04:35:57.831Z,20
2017-05-13T04:36:57.845Z,20
2017-05-13T04:37:57.869Z,20
2017-05-13T04:38:57.890Z,25
2017-05-13T04:39:57.917Z,25
2017-05-13T04:40:57.939Z,25
2017-05-13T04:41:57.959Z,25
2017-05-13T04:43:12.296Z,25
2017-05-13T04:44:58.034Z,25
2017-05-13T04:46:58.079Z,30
2017-05-13T04:47:57.795Z,30
2017-05-13T04:48:57.818Z,30
2017-05-13T04:50:12.153Z,30
2017-05-13T04:50:58.169Z,30
2017-05-13T04:51:58.191Z,30
2017-05-13T04:53:12.826Z,30
2017-05-13T04:54:12.848Z,30
2017-05-13T04:54:57.953Z,30
2017-05-13T04:55:58.280Z,30
2017-05-13T04:56:58.306Z,30
2017-05-13T04:58:12.943Z,30
2017-05-13T04:59:12.968Z,30
2017-05-13T04:59:58.376Z,30
2017-05-13T05:01:58.120Z,30
2017-05-13T05:02:58.161Z,30
2017-05-13T05:05:13.110Z,30
2017-05-13T05:05:58.513Z,30
2017-05-13T05:06:58.534Z,30
2017-05-13T05:08:13.181Z,30
2017-05-13T05:09:12.899Z,30
2017-05-13T05:09:58.308Z,30
2017-05-13T05:10:58.636Z,30
2017-05-13T05:11:58.654Z,30
2017-05-13T05:12:58.676Z,30
2017-05-13T05:13:58.698Z,30
2017-05-13T05:15:13.345Z,30
2017-05-13T05:15:58.742Z,30
2017-05-13T05:16:58.767Z,30
2017-05-13T05:17:58.794Z,30
2017-05-13T05:18:58.816Z,25
2017-05-13T05:19:58.838Z,25
2017-05-13T05:20:58.556Z,25
2017-05-13T05:21:58.881Z,25
2017-05-13T05:23:13.523Z,25
2017-05-13T05:24:58.948Z,20
2017-05-13T05:25:58.972Z,20
2017-05-13T05:26:58.996Z,20
2017-05-13T05:27:59.034Z,20
2017-05-13T05:28:59.056Z,20
2017-05-13T05:29:59.072Z,20
2017-05-13T05:31:13.703Z,20
2017-05-13T05:32:59.145Z,20
2017-05-13T05:33:59.157Z,20
2017-05-13T05:34:59.184Z,20
2017-05-13T05:35:59.203Z,25
2017-05-13T05:36:59.225Z,25
2017-05-13T05:37:59.248Z,25
2017-05-13T05:38:59.324Z,25
2017-05-13T05:40:13.917Z,25
2017-05-13T05:40:59.319Z,25
2017-05-13T05:42:13.958Z,25
2017-05-13T05:43:13.983Z,25
2017-05-13T05:43:59.432Z,25
2017-05-13T05:45:14.027Z,25
2017-05-13T05:46:13.750Z,25
2017-05-13T05:46:59.459Z,25
2017-05-13T05:47:59.175Z,25
2017-05-13T05:48:59.502Z,25
2017-05-13T05:49:59.524Z,25
2017-05-13T05:50:59.246Z,25
2017-05-13T05:51:59.267Z,25
2017-05-13T05:53:13.910Z,25
2017-05-13T05:53:59.620Z,25
2017-05-13T05:55:14.257Z,25
2017-05-13T05:56:14.283Z,25
2017-05-13T05:56:59.690Z,30
2017-05-13T05:58:28.943Z,30
2017-05-13T05:58:59.439Z,30
2017-05-13T05:59:59.756Z,30
2017-05-13T06:01:59.802Z,30
2017-05-13T06:02:59.833Z,30
2017-05-13T06:04:59.875Z,30
2017-05-13T06:05:59.896Z,30
2017-05-13T06:06:59.921Z,30
2017-05-13T06:07:59.947Z,30
2017-05-13T06:08:59.962Z,30
2017-05-13T06:09:59.986Z,35
2017-05-13T06:11:14.626Z,35
2017-05-13T06:12:00.033Z,35
2017-05-13T06:13:29.289Z,40
2017-05-13T06:14:29.314Z,40
2017-05-13T06:15:00.105Z,40
2017-05-13T06:15:59.867Z,45
2017-05-13T06:17:14.763Z,45
2017-05-13T06:18:14.484Z,50
2017-05-13T06:19:00.193Z,50
2017-05-13T06:20:00.220Z,50
2017-05-13T06:20:59.939Z,50
2017-05-13T06:22:00.265Z,50
2017-05-13T06:23:00.288Z,50
2017-05-13T06:24:00.310Z,55
2017-05-13T06:25:00.349Z,55
2017-05-13T06:26:00.362Z,55
2017-05-13T06:27:00.381Z,60
2017-05-13T06:28:00.403Z,60
2017-05-13T06:29:14.740Z,65
2017-05-13T06:30:00.450Z,65
2017-05-13T06:31:00.473Z,65
2017-05-13T06:32:00.189Z,65
2017-05-13T06:33:00.515Z,65
2017-05-13T06:34:15.163Z,65
2017-05-13T06:35:00.569Z,65
2017-05-13T06:36:00.587Z,65
2017-05-13T06:38:00.637Z,65
2017-05-13T06:39:00.658Z,65
2017-05-13T06:40:00.680Z,65
2017-05-13T06:41:00.706Z,65
2017-05-13T06:43:00.753Z,65
2017-05-13T06:44:15.086Z,70
2017-05-13T06:45:29.727Z,70
2017-05-13T06:46:00.834Z,70
2017-05-13T06:47:00.546Z,70
2017-05-13T06:48:00.869Z,70
2017-05-13T06:49:00.893Z,75
2017-05-13T06:50:15.222Z,75
2017-05-13T06:51:00.633Z,75
2017-05-13T06:52:00.960Z,75
2017-05-13T06:54:01.007Z,80
2017-05-13T06:55:01.035Z,80
2017-05-13T06:56:00.796Z,80
2017-05-13T06:57:01.078Z,80
2017-05-13T06:58:01.100Z,85
2017-05-13T06:59:01.131Z,85
2017-05-13T07:00:01.157Z,90
2017-05-13T07:01:01.174Z,90
2017-05-13T07:02:01.194Z,90
2017-05-13T07:03:30.451Z,90
2017-05-13T07:04:15.861Z,90
2017-05-13T07:05:01.269Z,90
2017-05-13T07:06:15.905Z,90
2017-05-13T07:07:01.321Z,90
2017-05-13T07:08:01.338Z,85
2017-05-13T07:09:01.056Z,85
2017-05-13T07:10:00.475Z,90
2017-05-13T07:11:15.723Z,90
2017-05-13T07:12:01.437Z,90
2017-05-13T07:13:15.776Z,95
2017-05-13T07:14:01.477Z,95
2017-05-13T07:15:01.502Z,95
2017-05-13T07:16:15.843Z,100
2017-05-13T07:17:15.867Z,105
2017-05-13T07:18:16.195Z,105
2017-05-13T07:19:01.600Z,100
2017-05-13T07:20:01.322Z,100
2017-05-13T07:21:16.265Z,100
2017-05-13T07:23:01.393Z,95
2017-05-13T07:24:01.721Z,85
2017-05-13T07:25:01.740Z,75
2017-05-13T07:26:01.772Z,70
2017-05-13T07:27:01.788Z,70
2017-05-13T07:28:01.811Z,70
2017-05-13T07:29:16.459Z,70
2017-05-13T07:30:16.476Z,70
2017-05-13T07:31:01.583Z,75
2017-05-13T07:32:01.910Z,75
2017-05-13T07:33:01.937Z,80
2017-05-13T07:34:01.966Z,80
2017-05-13T07:35:01.983Z,80
2017-05-13T07:36:16.621Z,80
2017-05-13T07:37:01.726Z,80
2017-05-13T07:38:02.055Z,80
2017-05-13T07:40:16.420Z,80
2017-05-13T07:41:02.134Z,80
2017-05-13T07:42:02.152Z,80
2017-05-13T07:43:01.875Z,80
2017-05-13T07:44:02.197Z,80
2017-05-13T07:45:16.534Z,85
2017-05-13T07:46:02.247Z,85
2017-05-13T07:47:02.269Z,85
2017-05-13T07:48:02.295Z,85
2017-05-13T07:49:02.323Z,90
2017-05-13T07:50:02.342Z,90
2017-05-13T07:51:02.363Z,90
2017-05-13T07:52:17.004Z,90
2017-05-13T07:53:16.768Z,85
2017-05-13T07:54:02.435Z,85
2017-05-13T07:55:02.464Z,85
2017-05-13T07:56:02.544Z,80
2017-05-13T07:57:02.514Z,80
2017-05-13T07:58:02.532Z,75
2017-05-13T07:59:02.555Z,75
2017-05-13T08:00:02.577Z,75
2017-05-13T08:01:17.221Z,75
2017-05-13T08:02:02.628Z,75
2017-05-13T08:03:02.657Z,70
2017-05-13T08:04:02.373Z,70
2017-05-13T08:05:31.932Z,70
2017-05-13T08:06:02.420Z,75
2017-05-13T08:07:02.749Z,75
2017-05-13T08:08:02.770Z,75
2017-05-13T08:10:02.822Z,75
2017-05-13T08:11:02.891Z,75
2017-05-13T08:13:02.588Z,70
2017-05-13T08:15:02.941Z,70
2017-05-13T08:16:02.963Z,70
2017-05-13T08:17:17.603Z,70
2017-05-13T08:18:03.033Z,70
2017-05-13T08:19:03.034Z,70
2017-05-13T08:20:03.061Z,70
2017-05-13T08:21:03.083Z,70
2017-05-13T08:22:17.724Z,75
2017-05-13T08:23:02.828Z,75
2017-05-13T08:24:17.468Z,80
2017-05-13T08:25:17.798Z,85
2017-05-13T08:26:03.248Z,85
2017-05-13T08:27:02.925Z,85
2017-05-13T08:29:03.278Z,80
2017-05-13T08:30:03.301Z,85
2017-05-13T08:31:03.326Z,85
2017-05-13T08:32:03.347Z,85
2017-05-13T08:33:03.368Z,90
2017-05-13T08:34:03.396Z,90
2017-05-13T08:35:03.462Z,90
2017-05-13T08:36:03.448Z,95
2017-05-13T08:37:03.165Z,95
2017-05-13T08:39:02.948Z,95
2017-05-13T08:40:18.157Z,85
2017-05-13T08:41:18.179Z,90
2017-05-13T08:43:03.311Z,90
2017-05-13T08:44:03.638Z,85
2017-05-13T08:45:17.980Z,80
2017-05-13T08:46:03.686Z,85
2017-05-13T08:47:03.710Z,80
2017-05-13T08:48:03.733Z,70
2017-05-13T08:49:03.759Z,70
2017-05-13T08:50:18.401Z,60
2017-05-13T08:51:03.808Z,55
2017-05-13T08:52:03.830Z,55
2017-05-13T08:53:33.086Z,55
2017-05-13T08:54:03.880Z,60
2017-05-13T08:55:03.906Z,55
2017-05-13T08:56:18.547Z,55
2017-05-13T08:59:04.002Z,65
2017-05-13T09:01:18.672Z,65
2017-05-13T09:02:04.071Z,70
2017-05-13T09:03:04.095Z,60
2017-05-13T09:04:04.122Z,60
2017-05-13T09:05:04.143Z,60
2017-05-13T09:06:33.403Z,65
2017-05-13T09:07:03.888Z,65
2017-05-13T09:08:33.146Z,60
2017-05-13T09:09:33.168Z,60
2017-05-13T09:10:04.264Z,60
2017-05-13T09:11:04.289Z,60
2017-05-13T09:13:04.032Z,60
2017-05-13T09:14:04.359Z,60
2017-05-13T09:16:04.104Z,55
2017-05-13T09:17:18.750Z,60
2017-05-13T09:18:18.771Z,65
2017-05-13T09:19:04.183Z,70
2017-05-13T09:20:04.517Z,70
2017-05-13T09:21:04.529Z,80
2017-05-13T09:22:04.252Z,80
2017-05-13T09:23:19.240Z,80
2017-05-13T09:24:04.301Z,80
2017-05-13T09:25:18.938Z,80
2017-05-13T09:26:18.961Z,80
2017-05-13T09:27:19.288Z,85
2017-05-13T09:30:04.757Z,80
2017-05-13T09:31:04.466Z,85
2017-05-13T09:32:04.187Z,85
2017-05-13T09:33:04.821Z,85
2017-05-13T09:34:04.844Z,85
2017-05-13T09:35:04.865Z,90
2017-05-13T09:36:04.893Z,90
2017-05-13T09:37:04.614Z,85
2017-05-13T09:38:04.938Z,80
2017-05-13T09:39:04.659Z,75
2017-05-13T09:40:19.300Z,75
2017-05-13T09:41:19.628Z,70
2017-05-13T09:42:04.730Z,70
2017-05-13T09:44:19.703Z,80
2017-05-13T09:45:05.150Z,80
2017-05-13T09:46:05.131Z,80
2017-05-13T09:47:19.777Z,70
2017-05-13T09:49:05.210Z,80
2017-05-13T09:50:04.922Z,90
2017-05-13T09:51:04.953Z,95
2017-05-13T09:52:05.273Z,100
2017-05-13T09:53:04.693Z,100
2017-05-13T09:54:05.323Z,100
2017-05-13T09:55:19.969Z,105
2017-05-13T09:56:19.992Z,110
2017-05-13T09:57:20.015Z,110
2017-05-13T09:58:05.422Z,115
2017-05-13T09:59:04.838Z,115
2017-05-13T10:00:19.480Z,120
2017-05-13T10:01:04.900Z,125
2017-05-13T10:03:05.553Z,135
2017-05-13T10:04:05.568Z,140
2017-05-13T10:05:05.597Z,140
2017-05-13T10:06:05.613Z,140
2017-05-13T10:07:05.341Z,140
2017-05-13T10:08:05.363Z,135
2017-05-13T10:09:05.688Z,135
2017-05-13T10:10:05.714Z,135
2017-05-13T10:11:05.744Z,135
2017-05-13T10:12:05.763Z,135
2017-05-13T10:13:20.405Z,140
2017-05-13T10:14:05.812Z,145
2017-05-13T10:15:05.835Z,145
2017-05-13T10:16:20.476Z,150
2017-05-13T10:17:05.579Z,155
2017-05-13T10:18:05.609Z,155
2017-05-13T10:19:05.329Z,165
2017-05-13T10:21:20.300Z,190
2017-05-13T10:22:06.009Z,195
2017-05-13T10:23:05.735Z,200
2017-05-13T10:24:06.056Z,205
2017-05-13T10:25:20.697Z,210
2017-05-13T10:26:06.107Z,210
2017-05-13T10:27:20.747Z,210
2017-05-13T10:28:20.776Z,210
2017-05-13T10:30:06.211Z,200
2017-05-13T10:31:20.554Z,195
2017-05-13T10:32:06.257Z,195
2017-05-13T10:33:06.306Z,190
2017-05-13T10:34:06.307Z,180
2017-05-13T10:35:06.334Z,175
2017-05-13T10:36:06.363Z,165
2017-05-13T10:38:06.409Z,160
2017-05-13T10:39:21.049Z,155
2017-05-13T10:40:21.073Z,160
2017-05-13T10:41:21.097Z,155
2017-05-13T10:42:06.514Z,160
2017-05-13T10:43:35.768Z,160
2017-05-13T10:44:35.486Z,170
2017-05-13T10:45:06.582Z,170
2017-05-13T10:46:06.607Z,180
2017-05-13T10:47:06.641Z,190
2017-05-13T10:48:06.655Z,210
2017-05-13T10:49:06.079Z,215
2017-05-13T10:50:06.406Z,215
2017-05-13T10:51:06.735Z,215
2017-05-13T10:52:06.456Z,210
2017-05-13T10:53:06.481Z,200
2017-05-13T10:54:21.126Z,190
2017-05-13T10:55:06.835Z,190
2017-05-13T10:56:21.175Z,190
2017-05-13T10:57:21.502Z,185
2017-05-13T10:58:06.914Z,180
2017-05-13T10:59:21.554Z,185
2017-05-13T11:00:35.893Z,190
2017-05-13T11:01:06.994Z,190
2017-05-13T11:02:07.015Z,195
2017-05-13T11:03:21.661Z,200
2017-05-13T11:06:07.115Z,185
2017-05-13T11:07:07.146Z,180
2017-05-13T11:08:07.169Z,180
2017-05-13T11:09:21.815Z,180
2017-05-13T11:10:07.262Z,180
2017-05-13T11:11:07.249Z,175
2017-05-13T11:12:21.584Z,170
2017-05-13T11:13:07.301Z,170
2017-05-13T11:14:07.332Z,165
2017-05-13T11:15:07.347Z,160
2017-05-13T11:16:07.373Z,160
2017-05-13T11:17:22.018Z,160
2017-05-13T11:19:22.066Z,165
2017-05-13T11:20:07.478Z,165
2017-05-13T11:21:07.524Z,165
2017-05-13T11:22:07.531Z,160
2017-05-13T11:23:07.252Z,160
2017-05-13T11:24:07.582Z,160
2017-05-13T11:25:07.298Z,160
2017-05-13T11:27:07.658Z,165
2017-05-13T11:28:22.304Z,160
2017-05-13T11:29:07.712Z,160
2017-05-13T11:30:07.735Z,165
2017-05-13T11:31:22.424Z,170
2017-05-13T11:32:37.020Z,170
2017-05-13T11:33:07.511Z,170
2017-05-13T11:34:07.839Z,175
2017-05-13T11:36:07.585Z,190
2017-05-13T11:37:07.916Z,195
2017-05-13T11:38:07.939Z,195
2017-05-13T11:39:07.969Z,200
2017-05-13T11:40:07.992Z,195
2017-05-13T11:41:08.017Z,195
2017-05-13T11:42:07.436Z,190
2017-05-13T11:43:08.071Z,190
2017-05-13T11:44:22.715Z,190
2017-05-13T11:45:08.123Z,190
2017-05-13T11:46:08.146Z,185
2017-05-13T11:47:07.874Z,185
2017-05-13T11:48:08.204Z,180
2017-05-13T11:49:22.845Z,170
2017-05-13T11:50:07.960Z,160
2017-05-13T11:51:22.898Z,145
2017-05-13T11:52:08.001Z,140
2017-05-13T11:54:08.052Z,140
2017-05-13T11:55:08.380Z,135
2017-05-13T11:56:08.408Z,130
2017-05-13T11:57:07.825Z,125
2017-05-13T11:58:23.081Z,120
2017-05-13T11:59:08.183Z,120
2017-05-13T12:00:07.912Z,120
2017-05-13T12:01:07.935Z,115
2017-05-13T12:02:23.185Z,120
2017-05-13T12:03:08.591Z,125
2017-05-13T12:04:08.620Z,125
2017-05-13T12:05:08.648Z,130
2017-05-13T12:06:23.025Z,135
2017-05-13T12:07:23.313Z,130
2017-05-13T12:09:08.446Z,120
2017-05-13T12:10:08.479Z,125
2017-05-13T12:11:08.804Z,130
2017-05-13T12:12:08.825Z,135
2017-05-13T12:13:23.471Z,140
2017-05-13T12:14:08.877Z,140
2017-05-13T12:16:08.931Z,155
2017-05-13T12:17:08.956Z,155
2017-05-13T12:18:08.988Z,150
2017-05-13T12:19:09.006Z,145
2017-05-13T12:20:08.775Z,140
2017-05-13T12:22:09.085Z,160
2017-05-13T12:23:09.119Z,175
2017-05-13T12:24:08.839Z,180
2017-05-13T12:25:09.167Z,185
2017-05-13T12:26:09.196Z,185
2017-05-13T12:27:23.231Z,190
2017-05-13T12:28:23.868Z,185
2017-05-13T12:29:08.966Z,185
2017-05-13T12:30:09.299Z,180
2017-05-13T12:31:23.940Z,180
2017-05-13T12:32:09.047Z,180
2017-05-13T12:33:09.379Z,185
2017-05-13T12:34:38.637Z,185
2017-05-13T12:35:09.125Z,190
2017-05-13T12:36:09.154Z,190
2017-05-13T12:37:09.481Z,205
2017-05-13T12:39:09.541Z,215
2017-05-13T12:40:09.564Z,220
2017-05-13T12:41:09.285Z,225
2017-05-13T12:43:09.640Z,235
2017-05-13T12:44:09.669Z,225
2017-05-13T12:45:09.694Z,210
2017-05-13T12:46:24.034Z,200
2017-05-13T12:47:24.082Z,190
2017-05-13T12:48:24.389Z,190
2017-05-13T12:49:09.501Z,190
2017-05-13T12:50:09.824Z,190
2017-05-13T12:51:09.856Z,190
2017-05-13T12:52:24.500Z,190
2017-05-13T12:53:09.902Z,190
2017-05-13T12:55:09.964Z,180
2017-05-13T12:56:09.687Z,175
2017-05-13T12:57:10.015Z,170
2017-05-13T12:58:09.737Z,165
2017-05-13T12:59:09.763Z,155
2017-05-13T13:00:10.097Z,150
2017-05-13T13:01:10.128Z,150
2017-05-13T13:02:09.845Z,150
2017-05-13T13:03:09.572Z,155
2017-05-13T13:04:10.201Z,155
2017-05-13T13:05:09.923Z,155
2017-05-13T13:06:24.873Z,155
2017-05-13T13:07:24.897Z,155
2017-05-13T13:08:10.004Z,155
2017-05-13T13:09:10.332Z,150
2017-05-13T13:10:24.976Z,150
2017-05-13T13:11:10.086Z,150
2017-05-13T13:12:09.815Z,150
2017-05-13T13:13:10.136Z,145
2017-05-13T13:14:10.166Z,150
2017-05-13T13:15:10.492Z,155
2017-05-13T13:16:10.525Z,155
2017-05-13T13:17:10.552Z,155
2017-05-13T13:18:25.193Z,160
2017-05-13T13:20:10.631Z,170
2017-05-13T13:21:10.659Z,170
2017-05-13T13:22:39.919Z,175
2017-05-13T13:23:10.406Z,170
2017-05-13T13:25:10.459Z,175
2017-05-13T13:26:25.406Z,175
2017-05-13T13:27:10.211Z,175
2017-05-13T13:28:10.853Z,180
2017-05-13T13:29:10.873Z,180
2017-05-13T13:30:10.896Z,185
2017-05-13T13:31:10.922Z,190
2017-05-13T13:32:10.650Z,190
2017-05-13T13:33:10.977Z,195
2017-05-13T13:34:11.005Z,200
2017-05-13T13:35:11.035Z,205
2017-05-13T13:36:11.063Z,210
2017-05-13T13:37:11.087Z,210
2017-05-13T13:38:11.115Z,210
2017-05-13T13:39:11.142Z,200
2017-05-13T13:40:11.171Z,205
2017-05-13T13:41:25.513Z,215
2017-05-13T13:42:10.921Z,220
2017-05-13T13:43:10.949Z,205
2017-05-13T13:44:10.669Z,200
2017-05-13T13:45:11.306Z,205
2017-05-13T13:46:11.335Z,205
2017-05-13T13:47:11.056Z,230
2017-05-13T13:48:11.385Z,220
2017-05-13T13:49:26.036Z,225
2017-05-13T13:50:26.064Z,225
2017-05-13T13:51:26.086Z,235
2017-05-13T13:52:26.115Z,255
2017-05-13T13:54:40.784Z,265
2017-05-13T13:55:11.281Z,260
2017-05-13T13:57:26.250Z,255
2017-05-13T13:58:11.659Z,265
2017-05-13T13:59:11.686Z,275
2017-05-13T14:00:11.724Z,265
2017-05-13T14:01:11.441Z,280
2017-05-13T14:02:11.772Z,240
2017-05-13T14:03:11.798Z,225
2017-05-13T14:04:11.229Z,225
2017-05-13T14:05:11.857Z,255
2017-05-13T14:06:11.886Z,220
2017-05-13T14:07:11.610Z,235
2017-05-13T14:08:11.634Z,215
2017-05-13T14:09:41.200Z,205
2017-05-13T14:10:11.998Z,200
2017-05-13T14:11:26.639Z,190
2017-05-13T14:12:12.055Z,185
2017-05-13T14:13:26.696Z,180
2017-05-13T14:14:26.718Z,180
2017-05-13T14:15:26.756Z,175
2017-05-13T14:16:11.549Z,175
2017-05-13T14:18:11.911Z,175
2017-05-13T14:19:11.937Z,185
2017-05-13T14:20:11.660Z,190
2017-05-13T14:21:26.914Z,195
2017-05-13T14:22:12.024Z,200
2017-05-13T14:23:12.404Z,200
2017-05-13T14:24:26.692Z,195
2017-05-13T14:25:26.724Z,195
2017-05-13T14:27:26.777Z,190
2017-05-13T14:28:12.487Z,190
2017-05-13T14:29:27.140Z,190
2017-05-13T14:30:12.246Z,190
2017-05-13T14:31:12.572Z,185
2017-05-13T14:32:12.605Z,185
2017-05-13T14:34:12.656Z,180
2017-05-13T14:36:12.406Z,175
2017-05-13T14:37:27.357Z,175
2017-05-13T14:38:27.386Z,170
2017-05-13T14:39:12.794Z,165
2017-05-13T14:40:12.217Z,160
2017-05-13T14:41:27.165Z,160
2017-05-13T14:42:12.581Z,155
2017-05-13T14:43:12.907Z,155
2017-05-13T14:44:12.934Z,150
2017-05-13T14:46:12.990Z,145
2017-05-13T14:47:13.017Z,145
2017-05-13T14:48:12.747Z,145
2017-05-13T14:49:12.467Z,145
2017-05-13T14:50:13.155Z,150
2017-05-13T14:51:27.749Z,145
2017-05-13T14:52:13.155Z,145
2017-05-13T14:53:27.801Z,145
2017-05-13T14:54:13.214Z,145
2017-05-13T14:55:42.475Z,140
2017-05-13T14:56:27.882Z,135
2017-05-13T14:57:27.913Z,130
2017-05-13T14:58:27.029Z,125
2017-05-13T14:59:13.358Z,115
2017-05-13T15:00:12.770Z,105
2017-05-13T15:01:28.024Z,100
2017-05-13T15:02:12.824Z,95
2017-05-13T15:03:13.463Z,85
2017-05-13T15:04:13.495Z,80
2017-05-13T15:05:13.519Z,75
2017-05-13T15:06:13.545Z,75
2017-05-13T15:07:12.665Z,75
2017-05-13T15:08:13.596Z,70
2017-05-13T15:09:13.671Z,75
2017-05-13T15:10:13.654Z,75
2017-05-13T15:11:28.299Z,75
2017-05-13T15:12:13.711Z,75
2017-05-13T15:13:13.737Z,75
2017-05-13T15:14:13.772Z,80
2017-05-13T15:15:13.791Z,80
2017-05-13T15:16:28.439Z,85
2017-05-13T15:17:13.848Z,90
2017-05-13T15:18:13.572Z,90
2017-05-13T15:20:13.930Z,95
2017-05-13T15:21:13.964Z,95
2017-05-13T15:22:13.995Z,90
2017-05-13T15:23:14.010Z,95
2017-05-13T15:24:13.732Z,90
2017-05-13T15:25:13.768Z,85
2017-05-13T15:26:28.707Z,85
2017-05-13T15:27:28.738Z,80
2017-05-13T15:28:14.147Z,85
2017-05-13T15:29:14.170Z,85
2017-05-13T15:30:28.525Z,85